Time;durP1;ratioP1;P1;durP2;ratioP2;P2;SDS_P1;SDS_P2;PMS_P1;PMS_P2;Temp;Humidity;BMP_temperature;BMP_pressure;BME280_temperature;BME280_humidity;BME280_pressure;Samples;Min_cycle;Max_cycle;Signal;HPM_P1;HPM_P2
2022/03/18 00:03:03;;;;;;;33.00;21.30;;;154.20;2252.80;;;;;;4943817;28;20526;-77
2022/03/18 00:05:31;;;;;;;30.48;19.20;;;154.10;2252.80;;;;;;4957506;29;20030;-79
2022/03/18 00:07:57;;;;;;;30.30;18.20;;;154.00;2252.80;;;;;;4957384;29;20023;-77
2022/03/18 00:10:23;;;;;;;37.72;21.05;;;154.00;2252.80;;;;;;4940391;29;20424;-76
2022/03/18 00:12:52;;;;;;;35.20;22.83;;;154.10;2252.80;;;;;;4940432;29;20480;-77
2022/03/18 00:15:18;;;;;;;36.47;21.73;;;154.10;2252.80;;;;;;4939918;29;20027;-78
2022/03/18 00:17:44;;;;;;;34.47;20.13;;;154.30;2252.80;;;;;;4940162;29;20019;-76
2022/03/18 00:20:12;;;;;;;30.88;19.90;;;154.00;2252.80;;;;;;4940106;29;20032;-79
2022/03/18 00:22:40;;;;;;;63.67;32.83;;;154.00;2252.80;;;;;;4939974;29;20492;-75
2022/03/18 00:25:06;;;;;;;42.53;25.67;;;154.00;2252.80;;;;;;4951368;29;20047;-74
2022/03/18 00:27:35;;;;;;;29.48;19.33;;;153.90;2252.80;;;;;;4966452;29;20047;-77
2022/03/18 00:30:01;;;;;;;33.78;20.27;;;153.90;2252.80;;;;;;4940087;29;20023;-77
2022/03/18 00:32:27;;;;;;;24.48;17.60;;;128.90;2252.80;;;;;;4957584;29;20446;-77
2022/03/18 00:34:53;;;;;;;28.85;19.13;;;153.80;2252.80;;;;;;4957080;29;20019;-77
2022/03/18 00:37:19;;;;;;;29.20;18.45;;;153.80;2252.80;;;;;;4956759;29;20074;-76
2022/03/18 00:39:45;;;;;;;28.35;18.10;;;153.80;2252.80;;;;;;4939849;29;20027;-78
2022/03/18 00:42:11;;;;;;;25.90;17.13;;;153.70;2252.80;;;;;;4939765;29;20023;-77
2022/03/18 00:44:37;;;;;;;30.08;20.30;;;153.70;2252.80;;;;;;4956614;29;20028;-77
2022/03/18 00:47:03;;;;;;;31.52;20.00;;;154.10;2252.80;;;;;;4939658;29;20027;-78
2022/03/18 00:52:14;;;;;;;28.25;18.13;;;153.60;2252.80;;;;;;4956821;29;20050;-77
2022/03/18 00:54:43;;;;;;;34.72;19.05;;;128.90;2252.80;;;;;;4939556;29;20054;-77
2022/03/18 00:57:10;;;;;;;29.05;18.30;;;128.90;2252.80;;;;;;4938436;29;20105;-74
2022/03/18 00:59:44;;;;;;;25.27;16.38;;;128.90;2252.80;;;;;;4939453;29;20030;-77
2022/03/18 01:02:12;;;;;;;26.35;17.00;;;128.90;2252.80;;;;;;4939150;29;20031;-77
2022/03/18 01:29:20;;;;;;;28.98;17.33;;;128.60;2252.80;;;;;;4878496;29;20443;-78
2022/03/18 01:35:29;;;;;;;27.33;18.40;;;128.70;2252.80;;;;;;4877946;29;20063;-77
2022/03/18 01:37:55;;;;;;;27.55;16.73;;;128.70;2252.80;;;;;;4877941;29;20025;-78
2022/03/18 01:40:21;;;;;;;25.98;16.33;;;128.70;2252.80;;;;;;4933912;29;20039;-78
2022/03/18 01:42:47;;;;;;;34.30;17.58;;;128.70;2252.80;;;;;;4938732;29;20408;-77
2022/03/18 01:45:15;;;;;;;38.45;19.67;;;128.80;2252.80;;;;;;4938528;29;20028;-77
2022/03/18 01:48:12;;;;;;;50.90;25.13;;;128.80;2252.80;;;;;;4938185;29;20019;-76
2022/03/18 01:53:37;;;;;;;25.67;14.68;;;128.70;2252.80;;;;;;4944641;29;20418;-79
2022/03/18 01:56:07;;;;;;;23.08;15.20;;;128.80;2252.80;;;;;;4938130;29;20047;-79
2022/03/18 01:58:33;;;;;;;23.70;15.85;;;128.70;2252.80;;;;;;4938415;29;20019;-77
2022/03/18 02:00:59;;;;;;;24.65;15.30;;;128.70;2252.80;;;;;;4938139;29;20034;-77
2022/03/18 02:03:25;;;;;;;25.45;15.45;;;128.70;2252.80;;;;;;4955636;29;20030;-77
2022/03/18 02:05:51;;;;;;;28.60;16.25;;;128.70;2252.80;;;;;;4938435;29;20365;-77
2022/03/18 02:08:17;;;;;;;27.50;16.48;;;128.70;2252.80;;;;;;4938067;29;20035;-77
2022/03/18 02:10:44;;;;;;;27.75;16.55;;;128.80;2252.80;;;;;;4955687;29;20027;-78
2022/03/18 02:13:10;;;;;;;29.33;16.75;;;128.80;2252.80;;;;;;4938516;29;20023;-79
2022/03/18 02:15:36;;;;;;;29.55;17.15;;;128.80;2252.80;;;;;;4955212;29;20146;-79
2022/03/18 02:18:02;;;;;;;30.20;17.70;;;128.90;2252.80;;;;;;4938273;29;20540;-78
2022/03/18 02:20:28;;;;;;;33.55;17.65;;;128.80;2252.80;;;;;;4938284;29;20024;-76
2022/03/18 02:22:54;;;;;;;28.55;16.33;;;128.80;2252.80;;;;;;4937835;29;20115;-76
2022/03/18 02:25:20;;;;;;;28.52;15.23;;;128.70;2252.80;;;;;;4938304;28;20113;-76
2022/03/18 02:27:57;;;;;;;26.02;15.80;;;128.80;2252.80;;;;;;4959116;29;20026;-75
2022/03/18 02:30:24;;;;;;;26.40;15.30;;;128.70;2252.80;;;;;;4942028;29;20030;-77
2022/03/18 02:32:50;;;;;;;22.77;13.57;;;128.70;2252.80;;;;;;4942045;29;20023;-76
2022/03/18 02:35:16;;;;;;;20.58;13.23;;;128.80;2252.80;;;;;;4941653;29;20365;-76
2022/03/18 02:37:42;;;;;;;17.73;12.55;;;128.90;2252.80;;;;;;4941915;29;20023;-76
2022/03/18 02:40:09;;;;;;;22.30;14.52;;;128.90;2252.80;;;;;;4941915;29;20030;-77
2022/03/18 02:42:34;;;;;;;23.23;15.48;;;153.60;2252.80;;;;;;4941583;29;20458;-78
2022/03/18 02:45:02;;;;;;;26.67;18.83;;;128.50;2252.80;;;;;;4941721;29;20077;-78
2022/03/18 02:47:30;;;;;;;30.70;21.67;;;128.40;2252.80;;;;;;4941664;29;20470;-76
2022/03/18 02:50:38;;;;;;;28.80;17.98;;;128.40;2252.80;;;;;;4941224;29;20023;-77
2022/03/18 02:53:36;;;;;;;;;;;;;;;;;;;;;
2022/03/18 02:56:51;;;;;;;18.60;12.48;;;128.40;2252.80;;;;;;4957953;29;20061;-76
2022/03/18 03:02:50;;;;;;;17.98;11.55;;;128.30;2252.80;;;;;;4872603;29;20386;-77
2022/03/18 03:08:57;;;;;;;;;;;;;;;;;;;;;
2022/03/18 03:11:36;;;;;;;16.92;11.50;;;128.20;2252.80;;;;;;4958045;29;20021;-78
2022/03/18 03:14:10;;;;;;;16.48;11.27;;;128.20;2252.80;;;;;;4940501;29;20030;-78
2022/03/18 03:16:39;;;;;;;21.63;13.07;;;128.40;2252.80;;;;;;4941022;29;20106;-78
2022/03/18 03:19:27;;;;;;;18.35;12.40;;;103.00;2227.20;;;;;;4938540;29;20090;-78
2022/03/18 03:25:50;;;;;;;18.33;13.20;;;128.50;2252.80;;;;;;4878782;29;20029;-77
2022/03/18 03:29:23;;;;;;;28.98;18.05;;;128.40;2252.80;;;;;;4862080;29;20045;-77
2022/03/18 03:36:06;;;;;;;;;;;;;;;;;;;;;
2022/03/18 03:42:32;;;;;;;30.10;17.55;;;128.10;2252.80;;;;;;4894619;29;20037;-78
2022/03/18 03:45:01;;;;;;;29.13;18.27;;;128.30;2252.80;;;;;;4956532;29;20027;-78
2022/03/18 03:48:07;;;;;;;;;;;;;;;;;;;;;
2022/03/18 04:04:50;;;;;;;21.40;14.75;;;103.20;2227.20;;;;;;4848928;29;20030;-78
2022/03/18 04:08:13;;;;;;;22.15;13.65;;;102.90;2227.20;;;;;;4921184;29;20129;-78
2022/03/18 04:14:34;;;;;;;23.42;15.20;;;102.90;2227.20;;;;;;4937786;29;20051;-78
2022/03/18 04:17:32;;;;;;;19.63;13.00;;;102.80;2227.20;;;;;;4920530;29;20043;-77
2022/03/18 04:19:58;;;;;;;23.08;13.25;;;102.90;2227.20;;;;;;4920731;29;20371;-78
2022/03/18 04:22:32;;;;;;;23.10;15.02;;;102.80;2227.20;;;;;;4920784;29;20016;-78
2022/03/18 04:24:57;;;;;;;28.80;18.45;;;102.80;2227.20;;;;;;4920684;29;20496;-77
2022/03/18 04:27:43;;;;;;;31.73;20.63;;;77.70;2227.20;;;;;;4878532;29;20060;-77
2022/03/18 04:34:20;;;;;;;30.88;19.05;;;102.70;2227.20;;;;;;4878772;29;20124;-76
2022/03/18 04:44:05;;;;;;;;;;;;;;;;;;;;;
2022/03/18 04:46:38;;;;;;;69.25;32.58;;;102.50;2227.20;;;;;;4878209;29;20403;-78
2022/03/18 04:49:20;;;;;;;62.25;29.95;;;102.60;2227.20;;;;;;4862538;29;20040;-77
2022/03/18 04:55:57;;;;;;;;;;;;;;;;;;;;;
2022/03/18 05:02:36;;;;;;;;;;;;;;;;;;;;;
2022/03/18 05:23:20;;;;;;;;;;;;;;;;;;;;;
2022/03/18 05:26:08;;;;;;;;;;;;;;;;;;;;;
2022/03/18 05:29:39;;;;;;;;;;;;;;;;;;;;;
2022/03/18 05:32:26;;;;;;;59.53;38.25;;;102.70;2227.20;;;;;;4768350;30;20447;-76
2022/03/18 07:01:30;;;;;;;22.80;14.90;;;128.90;2252.80;;;;;;4954860;29;20408;-79
2022/03/18 07:04:36;;;;;;;23.05;15.52;;;153.60;2252.80;;;;;;4852839;29;20457;-75
2022/03/18 07:07:57;;;;;;;24.15;16.40;;;153.70;2252.80;;;;;;4956466;29;20088;-76
2022/03/18 07:13:26;;;;;;;19.58;13.60;;;153.90;2252.80;;;;;;4878947;29;20052;-77
2022/03/18 07:19:33;;;;;;;20.77;11.32;;;153.80;2252.80;;;;;;4902191;29;20047;-76
2022/03/18 07:22:12;;;;;;;31.02;19.85;;;153.90;2252.80;;;;;;4901930;29;20024;-77
2022/03/18 07:25:03;;;;;;;;;;;;;;;;;;;;;
2022/03/18 07:27:32;;;;;;;23.45;15.45;;;153.90;2252.80;;;;;;4918022;29;20042;-76
2022/03/18 07:30:11;;;;;;;20.95;14.70;;;154.00;2252.80;;;;;;4901726;29;20698;-75
2022/03/18 07:33:28;;;;;;;21.90;14.25;;;154.10;2252.80;;;;;;4920114;29;20044;-76
2022/03/18 07:35:59;;;;;;;16.63;11.18;;;154.20;2252.80;;;;;;4930636;29;20043;-77
2022/03/18 07:38:29;;;;;;;18.38;11.60;;;154.10;2252.80;;;;;;4939004;29;20078;-78
2022/03/18 07:41:00;;;;;;;19.35;13.82;;;154.00;2252.80;;;;;;4921997;29;20024;-76
2022/03/18 07:43:57;;;;;;;22.85;14.00;;;154.20;2252.80;;;;;;4921365;29;20026;-75
2022/03/18 07:47:09;;;;;;;23.20;14.68;;;154.20;2252.80;;;;;;4921858;29;20462;-76
2022/03/18 07:49:57;;;;;;;22.40;14.25;;;154.30;2252.80;;;;;;4860465;29;20396;-76
2022/03/18 07:55:51;;;;;;;21.05;12.80;;;154.50;2252.80;;;;;;4927770;29;20123;-76
2022/03/18 07:58:17;;;;;;;21.80;13.55;;;154.50;2252.80;;;;;;4920968;29;20510;-77
2022/03/18 08:00:51;;;;;;;28.85;17.35;;;154.50;2252.80;;;;;;4921368;29;20024;-76
2022/03/18 08:03:51;;;;;;;20.38;14.02;;;179.20;2252.80;;;;;;4921138;29;20106;-76
2022/03/18 08:06:20;;;;;;;22.67;14.13;;;179.40;2252.80;;;;;;4921289;29;20034;-76
2022/03/18 08:09:34;;;;;;;35.08;19.08;;;179.50;2252.80;;;;;;4921401;29;20031;-76
2022/03/18 08:18:48;;;;;;;16.00;11.40;;;179.70;2252.80;;;;;;4952634;29;20445;-77
2022/03/18 08:21:52;;;;;;;17.17;11.75;;;154.50;2252.80;;;;;;4939884;29;20493;-81
2022/03/18 08:24:18;;;;;;;31.58;21.48;;;179.50;2252.80;;;;;;4939537;29;20525;-78
2022/03/18 08:26:46;;;;;;;19.48;13.07;;;179.60;2252.80;;;;;;4939789;29;20031;-76
2022/03/18 08:29:16;;;;;;;20.77;13.13;;;179.70;2252.80;;;;;;4939673;29;20409;-79
2022/03/18 08:31:44;;;;;;;22.02;13.50;;;179.90;2252.80;;;;;;4939789;29;20027;-79
2022/03/18 08:34:15;;;;;;;22.33;13.18;;;180.00;2252.80;;;;;;4940072;29;20484;-77
2022/03/18 08:36:44;;;;;;;22.77;13.68;;;180.00;2252.80;;;;;;4939928;29;20042;-75
2022/03/18 08:39:09;;;;;;;37.72;21.45;;;180.00;2252.80;;;;;;4956544;29;20027;-76
2022/03/18 08:41:35;;;;;;;24.70;15.57;;;180.00;2252.80;;;;;;4957211;29;20030;-77
2022/03/18 08:44:01;;;;;;;41.05;28.58;;;180.10;2252.80;;;;;;4956987;29;20019;-76
2022/03/18 08:46:27;;;;;;;19.75;11.98;;;204.80;2252.80;;;;;;4956489;29;20035;-76
2022/03/18 08:48:52;;;;;;;17.98;10.32;;;179.90;2252.80;;;;;;4939649;29;20031;-76
2022/03/18 08:51:18;;;;;;;20.05;12.93;;;179.90;2252.80;;;;;;4939564;29;20031;-77
2022/03/18 08:53:44;;;;;;;18.10;12.43;;;179.70;2252.80;;;;;;4956436;29;20015;-76
2022/03/18 08:56:10;;;;;;;40.78;22.38;;;179.70;2252.80;;;;;;4939377;29;20039;-76
2022/03/18 08:58:41;;;;;;;20.63;13.77;;;179.90;2252.80;;;;;;4939474;29;20027;-77
2022/03/18 09:01:07;;;;;;;22.65;13.95;;;180.00;2252.80;;;;;;4939139;29;20030;-75
2022/03/18 09:03:33;;;;;;;19.33;11.45;;;204.90;2252.80;;;;;;4939362;29;20020;-76
2022/03/18 09:05:59;;;;;;;21.50;14.32;;;205.00;2252.80;;;;;;4939233;29;20023;-77
2022/03/18 09:08:25;;;;;;;20.08;13.57;;;205.10;2252.80;;;;;;4955336;29;20070;-76
2022/03/18 09:10:50;;;;;;;51.67;38.08;;;205.20;2252.80;;;;;;4955960;29;20023;-78
2022/03/18 09:13:16;;;;;;;25.40;16.92;;;205.30;2252.80;;;;;;4939217;29;20023;-78
2022/03/18 09:15:42;;;;;;;23.63;14.00;;;205.40;2252.80;;;;;;4938736;29;20035;-78
2022/03/18 09:18:08;;;;;;;27.65;15.95;;;205.50;2201.60;;;;;;4956411;29;20027;-78
2022/03/18 09:20:34;;;;;;;28.65;17.55;;;205.40;2227.20;;;;;;4938925;29;20071;-77
2022/03/18 09:23:00;;;;;;;32.30;20.05;;;205.50;2227.20;;;;;;4938731;29;20380;-78
2022/03/18 09:25:26;;;;;;;33.17;21.38;;;205.50;2227.20;;;;;;4939063;29;20023;-80
2022/03/18 09:27:52;;;;;;;23.95;16.27;;;205.60;2227.20;;;;;;4938988;29;20024;-80
2022/03/18 09:30:17;;;;;;;20.38;13.65;;;205.70;2227.20;;;;;;4938861;29;20446;-77
2022/03/18 09:32:43;;;;;;;21.83;15.73;;;205.60;2252.80;;;;;;4938505;29;20023;-77
2022/03/18 09:35:11;;;;;;;29.17;18.90;;;205.70;2227.20;;;;;;4955152;28;20023;-78
2022/03/18 09:37:37;;;;;;;19.75;14.63;;;230.40;2176.00;;;;;;4955910;29;20027;-78
2022/03/18 09:40:05;;;;;;;23.88;15.88;;;205.70;2124.80;;;;;;4938810;29;20030;-77
2022/03/18 09:42:32;;;;;;;16.98;11.90;;;230.40;2150.40;;;;;;4938498;29;20030;-78
2022/03/18 09:44:58;;;;;;;34.72;24.75;;;230.40;2124.80;;;;;;4938602;29;20476;-79
2022/03/18 09:47:25;;;;;;;40.20;24.23;;;230.50;2150.40;;;;;;4938733;29;20075;-79
2022/03/18 09:49:51;;;;;;;28.05;17.95;;;230.70;2176.00;;;;;;4938333;29;20533;-78
2022/03/18 09:52:18;;;;;;;26.98;16.58;;;230.90;2150.40;;;;;;4938511;29;20019;-80
2022/03/18 09:54:44;;;;;;;17.45;11.60;;;230.90;2150.40;;;;;;4938459;29;20045;-80
2022/03/18 09:57:11;;;;;;;19.85;12.95;;;230.80;2124.80;;;;;;4938260;29;20090;-81
2022/03/18 09:59:37;;;;;;;17.58;13.15;;;230.70;2150.40;;;;;;4955706;29;20023;-77
2022/03/18 10:02:21;;;;;;;18.63;13.23;;;230.70;2073.60;;;;;;4938393;29;20480;-78
2022/03/18 10:04:59;;;;;;;25.85;17.30;;;230.70;2073.60;;;;;;4955075;29;20098;-80
2022/03/18 10:07:26;;;;;;;26.55;19.98;;;230.90;2048.00;;;;;;4955349;29;20027;-77
2022/03/18 10:10:08;;;;;;;24.05;15.00;;;231.00;2022.40;;;;;;4955004;29;20077;-78
2022/03/18 10:12:41;;;;;;;18.95;14.65;;;231.20;2073.60;;;;;;4955946;29;20030;-78
2022/03/18 10:15:25;;;;;;;16.23;11.35;;;231.30;1920.00;;;;;;4955646;29;20024;-78
2022/03/18 10:17:53;;;;;;;23.90;17.02;;;231.20;1971.20;;;;;;4955363;29;20054;-76
2022/03/18 10:20:40;;;;;;;19.10;13.68;;;231.30;1971.20;;;;;;4949852;29;20069;-75
2022/03/18 10:23:06;;;;;;;38.92;21.13;;;231.30;1920.00;;;;;;4949722;29;20078;-77
2022/03/18 10:25:42;;;;;;;21.55;15.07;;;256.20;1971.20;;;;;;4938178;29;20027;-78
2022/03/18 10:28:10;;;;;;;27.55;20.10;;;256.10;1945.60;;;;;;4938594;29;20026;-76
2022/03/18 10:30:36;;;;;;;35.08;23.50;;;256.00;1971.20;;;;;;4938142;29;20118;-77
2022/03/18 10:33:03;;;;;;;35.25;23.75;;;256.00;1996.80;;;;;;4938176;29;20030;-77
2022/03/18 10:38:35;;;;;;;38.25;29.05;;;256.20;1920.00;;;;;;4955140;29;20078;-77
2022/03/18 10:41:24;;;;;;;98.47;63.70;;;256.40;1920.00;;;;;;4937875;29;20027;-76
2022/03/18 10:43:54;;;;;;;19.05;13.35;;;256.50;1868.80;;;;;;4938088;29;20126;-77
2022/03/18 10:46:20;;;;;;;21.23;15.18;;;256.50;1817.60;;;;;;4937922;28;20045;-76
2022/03/18 10:49:04;;;;;;;20.10;13.38;;;256.70;1843.20;;;;;;4959336;29;20023;-77
2022/03/18 10:51:30;;;;;;;21.20;14.93;;;256.80;1792.00;;;;;;4941833;29;20027;-78
2022/03/18 10:53:57;;;;;;;22.80;12.45;;;281.70;1843.20;;;;;;4941581;29;20026;-77
2022/03/18 10:56:24;;;;;;;20.27;13.80;;;281.70;1792.00;;;;;;4941789;29;20148;-77
2022/03/18 10:58:51;;;;;;;22.58;15.32;;;282.00;1817.60;;;;;;4958629;29;20019;-78
2022/03/18 11:01:22;;;;;;;23.17;13.30;;;282.00;1817.60;;;;;;4958619;29;20373;-77
2022/03/18 11:03:51;;;;;;;14.82;10.48;;;282.20;1817.60;;;;;;4941658;29;20030;-75
2022/03/18 11:06:17;;;;;;;22.70;14.63;;;281.90;1740.80;;;;;;4941260;29;20023;-76
2022/03/18 11:08:48;;;;;;;16.05;10.95;;;282.20;1792.00;;;;;;4958859;29;20106;-77
2022/03/18 11:11:18;;;;;;;14.35;10.55;;;281.80;1740.80;;;;;;4941467;29;20377;-78
2022/03/18 11:14:06;;;;;;;25.80;18.52;;;282.10;1792.00;;;;;;4941243;29;20118;-76
2022/03/18 11:16:38;;;;;;;23.08;12.55;;;282.50;1766.40;;;;;;4958616;29;20038;-78
2022/03/18 11:19:10;;;;;;;23.58;14.57;;;307.20;1792.00;;;;;;4941274;29;20458;-75
2022/03/18 11:21:40;;;;;;;14.82;11.18;;;307.50;1766.40;;;;;;4957887;29;20066;-77
2022/03/18 11:24:15;;;;;;;14.73;10.10;;;307.60;1740.80;;;;;;4941138;29;20452;-76
2022/03/18 11:26:49;;;;;;;15.63;12.18;;;307.60;1817.60;;;;;;4940551;29;20023;-76
2022/03/18 11:29:24;;;;;;;24.60;18.27;;;282.50;1689.60;;;;;;4941199;29;20030;-76
2022/03/18 11:32:17;;;;;;;22.58;16.08;;;282.30;1766.40;;;;;;4957248;29;20623;-77
2022/03/18 11:34:52;;;;;;;23.92;18.13;;;282.20;1740.80;;;;;;4958047;29;20038;-77
2022/03/18 11:37:19;;;;;;;33.13;22.17;;;282.10;1740.80;;;;;;4940947;29;20475;-74
2022/03/18 11:39:46;;;;;;;30.33;18.75;;;282.20;1766.40;;;;;;4940909;29;20019;-75
2022/03/18 11:42:20;;;;;;;27.23;16.67;;;307.30;1766.40;;;;;;4958182;29;20457;-74
2022/03/18 11:44:55;;;;;;;26.40;17.58;;;307.50;1740.80;;;;;;4958070;29;20030;-73
2022/03/18 11:47:33;;;;;;;20.80;14.48;;;307.70;1715.20;;;;;;4957864;29;20019;-74
2022/03/18 11:50:00;;;;;;;46.55;22.95;;;308.00;1689.60;;;;;;4940511;29;20032;-75
2022/03/18 11:52:27;;;;;;;54.97;29.13;;;307.90;1561.60;;;;;;4958150;29;20020;-75
2022/03/18 11:55:14;;;;;;;11.50;8.00;;;308.00;1612.80;;;;;;4940287;29;20045;-75
2022/03/18 11:57:45;;;;;;;16.15;10.13;;;308.00;1587.20;;;;;;4940454;28;20046;-74
2022/03/18 12:00:33;;;;;;;17.58;11.10;;;307.90;1612.80;;;;;;4939862;29;20034;-74
2022/03/18 12:03:04;;;;;;;37.42;23.10;;;332.80;1664.00;;;;;;4957387;29;20366;-74
2022/03/18 12:05:31;;;;;;;26.00;17.92;;;333.20;1612.80;;;;;;4940571;29;20043;-75
2022/03/18 12:07:59;;;;;;;28.52;20.73;;;333.00;1587.20;;;;;;4940434;29;20117;-74
2022/03/18 12:10:41;;;;;;;18.00;12.27;;;333.00;1587.20;;;;;;4957140;29;20099;-75
2022/03/18 12:13:07;;;;;;;51.20;35.03;;;333.40;1587.20;;;;;;4940418;29;20171;-75
2022/03/18 12:15:38;;;;;;;27.67;18.85;;;333.20;1484.80;;;;;;4940278;29;20118;-73
2022/03/18 12:18:04;;;;;;;17.77;9.55;;;333.30;1510.40;;;;;;4957445;29;20103;-74
2022/03/18 12:20:37;;;;;;;13.68;9.15;;;333.30;1484.80;;;;;;4940002;29;20050;-73
2022/03/18 12:23:08;;;;;;;19.90;12.73;;;333.40;1536.00;;;;;;4939785;29;20444;-74
2022/03/18 12:25:39;;;;;;;19.23;14.00;;;333.20;1510.40;;;;;;4956980;29;20467;-75
2022/03/18 12:28:09;;;;;;;18.27;13.52;;;333.20;1587.20;;;;;;4957417;29;20109;-75
2022/03/18 12:30:37;;;;;;;29.13;16.95;;;333.00;1561.60;;;;;;4939774;29;20141;-73
2022/03/18 12:33:05;;;;;;;24.05;17.13;;;333.20;1561.60;;;;;;4939971;29;20366;-74
2022/03/18 12:35:44;;;;;;;21.98;14.63;;;333.30;1536.00;;;;;;4957081;29;20019;-73
2022/03/18 12:38:13;;;;;;;21.30;13.70;;;333.70;1561.60;;;;;;4956872;29;20073;-75
2022/03/18 12:40:41;;;;;;;17.73;12.25;;;358.40;1561.60;;;;;;4962161;28;20023;-73
2022/03/18 12:43:07;;;;;;;16.38;10.82;;;358.50;1536.00;;;;;;4958723;28;20034;-75
2022/03/18 12:45:44;;;;;;;10.07;7.45;;;358.80;1510.40;;;;;;4975605;28;20057;-74
2022/03/18 12:48:13;;;;;;;14.98;10.57;;;358.60;1459.20;;;;;;4958826;28;20073;-75
2022/03/18 12:50:44;;;;;;;27.05;16.95;;;358.50;1510.40;;;;;;4958682;28;20030;-75
2022/03/18 12:53:16;;;;;;;26.08;17.88;;;358.50;1484.80;;;;;;4975835;28;20420;-75
2022/03/18 12:55:43;;;;;;;21.65;14.68;;;358.50;1484.80;;;;;;4958209;28;20513;-74
2022/03/18 12:58:10;;;;;;;18.45;12.02;;;358.80;1510.40;;;;;;4975894;28;20076;-73
2022/03/18 13:00:44;;;;;;;23.02;15.55;;;358.80;1484.80;;;;;;4958459;28;20028;-73
2022/03/18 13:03:23;;;;;;;22.60;15.68;;;358.80;1510.40;;;;;;4958079;28;20030;-76
2022/03/18 13:05:52;;;;;;;25.77;18.65;;;358.60;1484.80;;;;;;4958306;28;20037;-74
2022/03/18 13:08:19;;;;;;;22.55;14.00;;;358.70;1510.40;;;;;;4975062;28;20457;-74
2022/03/18 13:11:00;;;;;;;22.42;13.98;;;358.80;1536.00;;;;;;4958094;28;20453;-74
2022/03/18 13:13:27;;;;;;;21.88;13.85;;;359.00;1484.80;;;;;;4958156;28;20033;-73
2022/03/18 13:15:59;;;;;;;26.95;19.08;;;359.00;1510.40;;;;;;4957749;28;20548;-74
2022/03/18 13:18:31;;;;;;;19.67;14.93;;;358.60;1484.80;;;;;;4975279;28;20102;-73
2022/03/18 13:21:01;;;;;;;21.50;14.23;;;358.80;1510.40;;;;;;4954771;29;20317;-76
2022/03/18 13:23:28;;;;;;;21.95;16.65;;;358.80;1510.40;;;;;;4954543;29;20548;-73
2022/03/18 13:25:55;;;;;;;19.40;13.90;;;359.00;1510.40;;;;;;4954720;29;20039;-75
2022/03/18 13:28:22;;;;;;;23.15;14.43;;;358.90;1510.40;;;;;;4954649;29;20030;-74
2022/03/18 13:33:45;;;;;;;14.13;8.38;;;359.10;1510.40;;;;;;4956060;29;20066;-75
2022/03/18 13:36:33;;;;;;;16.42;10.77;;;359.10;1459.20;;;;;;4975228;28;20031;-73
2022/03/18 13:39:05;;;;;;;26.70;18.83;;;358.90;1459.20;;;;;;4956317;28;20051;-73
2022/03/18 13:41:49;;;;;;;23.17;17.40;;;359.00;1484.80;;;;;;4954876;29;20110;-77
2022/03/18 13:44:18;;;;;;;16.80;12.68;;;358.90;1484.80;;;;;;4954193;29;20070;-74
2022/03/18 13:47:05;;;;;;;18.02;11.68;;;358.90;1459.20;;;;;;4954601;29;20466;-75
2022/03/18 13:49:32;;;;;;;24.15;15.27;;;358.80;1459.20;;;;;;4956060;28;20024;-75
2022/03/18 13:52:02;;;;;;;21.63;13.50;;;358.70;1459.20;;;;;;4955416;28;20098;-75
2022/03/18 13:54:28;;;;;;;145.75;29.38;;;358.70;1484.80;;;;;;4955593;28;20023;-74
2022/03/18 13:56:59;;;;;;;16.02;10.77;;;358.60;1484.80;;;;;;4954423;29;20031;-74
2022/03/18 13:59:25;;;;;;;11.35;6.75;;;358.40;1459.20;;;;;;4955622;28;20023;-75
2022/03/18 14:02:01;;;;;;;24.95;17.08;;;333.40;1433.60;;;;;;4954443;29;20023;-75
2022/03/18 14:04:38;;;;;;;22.45;15.90;;;333.10;1510.40;;;;;;4953814;29;20027;-75
2022/03/18 14:07:05;;;;;;;39.38;24.52;;;332.90;1536.00;;;;;;4954189;29;20027;-75
2022/03/18 14:09:31;;;;;;;36.63;24.88;;;332.90;1587.20;;;;;;4955389;28;20462;-74
2022/03/18 14:12:13;;;;;;;26.38;18.88;;;333.00;1587.20;;;;;;4953791;29;20034;-79
2022/03/18 14:15:10;;;;;;;41.67;28.13;;;333.10;1561.60;;;;;;4956017;28;20055;-77
2022/03/18 16:09:17;;;;;;;60.28;39.17;;;231.20;1664.00;;;;;;4977019;28;20050;-73
2022/03/18 16:11:43;;;;;;;77.40;51.92;;;231.20;1689.60;;;;;;4976377;28;20023;-77
2022/03/18 16:14:24;;;;;;;82.10;54.50;;;231.20;1689.60;;;;;;4959376;28;20023;-79
2022/03/18 16:16:50;;;;;;;88.95;60.80;;;231.20;1689.60;;;;;;4959550;28;20073;-77
2022/03/18 16:19:17;;;;;;;89.65;59.22;;;231.20;1689.60;;;;;;4959119;28;20421;-80
2022/03/18 16:21:42;;;;;;;112.47;71.53;;;231.00;1715.20;;;;;;4959318;28;20396;-78
2022/03/18 16:24:20;;;;;;;107.93;62.53;;;231.00;1715.20;;;;;;4958515;28;20030;-80
2022/03/18 16:26:56;;;;;;;97.57;58.25;;;231.00;1715.20;;;;;;4959204;28;20042;-80
2022/03/18 16:29:23;;;;;;;71.53;45.58;;;230.90;1740.80;;;;;;4976802;28;20052;-79
2022/03/18 16:31:51;;;;;;;79.63;50.47;;;230.80;1766.40;;;;;;4958172;28;20115;-78
2022/03/18 16:34:22;;;;;;;74.38;49.95;;;205.60;1740.80;;;;;;4959186;28;20117;-76
2022/03/18 16:37:50;;;;;;;;;;;;;;;;;;;;;
2022/03/18 16:40:16;;;;;;;59.17;36.60;;;230.60;1740.80;;;;;;4878810;29;20028;-75
2022/03/18 16:42:43;;;;;;;65.68;43.47;;;230.50;1740.80;;;;;;4973006;28;20114;-76
2022/03/18 16:51:26;;;;;;;60.22;39.63;;;230.40;1766.40;;;;;;4977250;28;20025;-79
2022/03/18 17:01:45;;;;;;;74.65;47.72;;;205.50;1792.00;;;;;;4873850;29;20070;-82
2022/03/18 17:07:37;;;;;;;61.67;39.63;;;205.30;1792.00;;;;;;4975655;28;20053;-76
2022/03/18 17:10:27;;;;;;;71.28;44.88;;;205.10;1792.00;;;;;;4958222;28;20134;-78
2022/03/18 17:12:53;;;;;;;69.00;45.40;;;205.10;1817.60;;;;;;4942860;28;20460;-78
2022/03/18 17:15:20;;;;;;;64.55;42.08;;;205.10;1817.60;;;;;;4957946;28;20153;-77
2022/03/18 17:17:45;;;;;;;57.10;38.83;;;205.10;1792.00;;;;;;4958093;28;20026;-78
2022/03/18 17:20:12;;;;;;;68.43;43.83;;;205.20;1817.60;;;;;;4958013;28;20019;-81
2022/03/18 17:22:39;;;;;;;88.32;59.08;;;205.20;1792.00;;;;;;4958329;28;20027;-80
2022/03/18 17:25:05;;;;;;;88.25;57.65;;;205.00;1817.60;;;;;;4975367;28;20030;-78
2022/03/18 17:27:32;;;;;;;79.10;53.65;;;204.90;1817.60;;;;;;4957849;28;20029;-76
2022/03/18 17:29:58;;;;;;;78.70;52.63;;;204.90;1817.60;;;;;;4975436;28;20015;-77
2022/03/18 17:32:25;;;;;;;76.13;55.20;;;180.00;1843.20;;;;;;4957983;28;20053;-78
2022/03/18 17:34:51;;;;;;;74.82;50.15;;;180.10;1843.20;;;;;;4957763;28;20050;-77
2022/03/18 17:37:17;;;;;;;70.60;47.83;;;205.00;1843.20;;;;;;4958007;28;20037;-76
2022/03/18 17:39:43;;;;;;;73.18;49.28;;;180.10;1843.20;;;;;;4957972;28;20030;-77
2022/03/18 17:42:10;;;;;;;98.13;61.55;;;180.10;1843.20;;;;;;4957716;28;20034;-78
2022/03/18 17:44:36;;;;;;;79.60;50.28;;;180.10;1843.20;;;;;;4957831;28;20038;-77
2022/03/18 17:47:04;;;;;;;74.22;49.65;;;180.00;1843.20;;;;;;4957896;28;20114;-80
2022/03/18 17:49:32;;;;;;;73.53;45.58;;;180.00;1843.20;;;;;;4957573;28;20027;-78
2022/03/18 17:52:02;;;;;;;79.75;51.50;;;180.00;1868.80;;;;;;4957725;28;20022;-79
2022/03/18 17:54:28;;;;;;;81.90;55.40;;;179.90;1843.20;;;;;;4957420;28;20026;-81
2022/03/18 17:56:54;;;;;;;77.00;53.83;;;179.90;1868.80;;;;;;4956983;28;20027;-79
2022/03/18 17:59:25;;;;;;;92.65;66.72;;;179.80;1920.00;;;;;;4957673;28;20117;-79
2022/03/18 18:02:32;;;;;;;89.93;58.45;;;179.70;1894.40;;;;;;4957283;28;20025;-79
2022/03/18 18:25:40;;;;;;;141.52;93.95;;;153.90;1971.20;;;;;;4877314;29;20517;-82
2022/03/18 18:31:49;;;;;;;110.50;72.40;;;153.80;2022.40;;;;;;4857646;29;20029;-78
2022/03/18 18:34:21;;;;;;;99.97;67.63;;;153.60;2048.00;;;;;;4843096;29;20041;-78
2022/03/18 20:14:47;;;;;;;96.85;59.10;;;128.00;2073.60;;;;;;4918559;29;20058;-81
2022/03/18 20:17:45;;;;;;;85.20;55.65;;;103.30;2048.00;;;;;;4883576;29;20029;-81
2022/03/18 20:33:47;;;;;;;111.95;72.72;;;102.80;2124.80;;;;;;4859188;23;20116;-85
2022/03/18 20:36:12;;;;;;;75.22;48.30;;;102.80;2150.40;;;;;;4884035;29;20111;-85
2022/03/18 20:38:38;;;;;;;72.85;47.85;;;102.90;2176.00;;;;;;4883801;29;20024;-83
2022/03/18 20:41:06;;;;;;;141.38;73.43;;;102.80;2176.00;;;;;;4887856;29;20031;-83
2022/03/18 21:18:31;;;;;;;317.13;152.85;;;77.40;2227.20;;;;;;5153108;23;20060;-82
2022/03/18 21:21:23;;;;;;;144.15;84.78;;;77.60;2227.20;;;;;;4901373;29;20453;-84